Latest Weather Observations for Yamba

IDN60801

Issued at 8:35 pm EDT Monday 20 October 2014 (issued every 30 minutes, with the page automatically refreshed every 10 minutes)

About weather observations | Map of weather stations | Latest weather observations for NSW | Other Formats
Station Details ID: 058012 Name: YAMBA PILOT STATION Lat: -29.43 Lon: 153.36 Height: 27.4 m
Data from the previous 72 hours. | See also: Recent months at Yamba
Date/Time
EDT
Temp
°C
App
Temp
°C
Dew
Point
Rel
Hum
%
Delta-T
°C
Wind Press
QNH
hPa
Press
MSL
hPa
Rain
since 9 am
mm
Dir
 
Spd
km/h
Gust
km/h
Spd
kts
Gust
kts
20/08:30pm 19.9 - - - - S 24 37 13 20 1026.9 - 0.0
20/08:02pm 20.0 - - - - S 28 46 15 25 1026.6 - 0.0
20/08:00pm 20.1 - - - - S 26 46 14 25 1026.6 - 0.0
20/07:41pm 20.2 - - - - S 28 46 15 25 1026.3 - 0.0
20/07:30pm 20.2 - - - - S 26 43 14 23 1026.1 - 0.0
20/07:09pm 20.1 - - - - S 28 46 15 25 1025.8 - 0.0
20/07:08pm 20.1 - - - - S 28 46 15 25 1025.8 - 0.0
20/07:00pm 20.2 - - - - S 26 43 14 23 1025.7 - 0.0
20/06:30pm 20.5 - - - - SSE 30 50 16 27 1025.4 - 0.0
20/06:06pm 20.8 - - - - SSE 30 50 16 27 1025.2 - 0.0
20/06:05pm 20.8 - - - - SSE 30 50 16 27 1025.2 - 0.0
20/06:00pm 20.8 - - - - SSE 32 46 17 25 1025.1 1025.0 0.0
20/05:30pm 21.5 - - - - SSE 35 56 19 30 1024.9 - 0.0
20/05:02pm 21.7 - - - - SSE 32 52 17 28 1024.5 - 0.0
20/05:01pm 21.7 - - - - SSE 32 52 17 28 1024.5 - 0.0
20/05:00pm 21.8 - - - - SSE 30 46 16 25 1024.5 - 0.0
20/04:59pm 21.5 - - - - SE 30 46 16 25 1024.5 - 0.0
20/04:30pm 22.4 - - - - SE 28 35 15 19 1024.3 - 0.0
20/04:00pm 22.8 - - - - SE 22 30 12 16 1024.1 - 0.0
20/03:30pm 22.5 - - - - E 9 13 5 7 1024.0 - 0.0
20/03:00pm 23.7 - - - - NE 9 13 5 7 1023.9 1023.8 0.0
20/02:30pm 23.1 - - - - NE 13 19 7 10 1023.7 - 0.0
20/02:00pm 23.9 - - - - NE 11 17 6 9 1023.6 - 0.0
20/01:30pm 23.9 - - - - NE 11 19 6 10 1023.7 - 0.0
20/01:00pm 23.6 - - - - NE 11 20 6 11 1023.9 - 0.0
20/12:30pm 23.7 - - - - NE 11 20 6 11 1024.2 - 0.0
20/12:00pm 24.4 - - - - NE 9 17 5 9 1024.4 1024.3 0.0
20/11:30am 23.3 - - - - NE 9 15 5 8 1024.6 - 0.0
20/11:00am 23.1 - - - - NE 9 17 5 9 1024.7 - 0.0
20/10:30am 22.2 - - - - NNE 7 13 4 7 1025.0 - 0.0
20/10:00am 21.3 - - - - NNE 7 11 4 6 1024.9 - 0.0
20/09:30am 20.5 - - - - NW 9 13 5 7 1025.1 - 0.0
20/09:00am 19.5 - - - - NNW 7 11 4 6 1024.9 1024.8 0.0
20/08:30am 18.1 - - - - NW 7 11 4 6 1025.1 - 0.0
20/08:00am 16.9 - - - - NW 7 11 4 6 1024.9 - 0.0
20/07:30am 15.7 - - - - WNW 9 11 5 6 1024.9 - 0.0
20/07:00am 15.2 - - - - NW 6 9 3 5 1024.6 - 0.0
20/06:30am 14.5 - - - - W 9 11 5 6 1024.5 - 0.0
20/06:00am 14.1 - - - - W 9 11 5 6 1024.2 1024.1 0.0
20/05:30am 14.5 - - - - WSW 9 11 5 6 1024.1 - 0.0
20/05:00am 14.9 - - - - WSW 11 13 6 7 1024.0 - 0.0
20/04:30am 15.1 - - - - WSW 9 13 5 7 1024.3 - 0.0
20/04:00am 15.0 - - - - SW 9 13 5 7 1024.3 - 0.0
20/03:30am 15.5 - - - - WSW 7 11 4 6 1024.6 - 0.0
20/03:00am 15.6 - - - - SW 7 11 4 6 1024.6 1024.5 0.0
20/02:30am 15.5 - - - - WSW 9 13 5 7 1024.8 - 0.0
20/02:00am 15.9 - - - - WSW 9 13 5 7 1025.2 - 0.0
20/01:30am 16.4 - - - - WSW 9 13 5 7 1025.7 - 0.0
20/01:00am 16.3 - - - - WSW 9 11 5 6 1026.1 - 0.0
20/12:30am 16.6 - - - - WSW 9 13 5 7 1026.5 - 0.0
20/12:00am 16.7 - - - - W 7 9 4 5 1026.6 1026.5 0.0
 
Date/Time
EDT
Temp
°C
App
Temp
°C
Dew
Point
Rel
Hum
%
Delta-T
°C
Wind Press
QNH
hPa
Press
MSL
hPa
Rain
since 9 am
mm
Dir
 
Spd
km/h
Gust
km/h
Spd
kts
Gust
kts
19/11:30pm 17.7 - - - - WNW 6 9 3 5 1026.8 - 0.0
19/11:00pm 18.6 - - - - NNE 6 9 3 5 1026.8 - 0.0
19/10:30pm 18.8 - - - - NE 6 11 3 6 1026.7 - 0.0
19/10:00pm 19.2 - - - - NE 7 13 4 7 1026.5 - 0.0
19/09:30pm 19.3 - - - - ENE 9 13 5 7 1026.4 - 0.0
19/09:00pm 19.3 - - - - ENE 9 15 5 8 1026.1 1025.9 0.0
19/08:30pm 19.4 - - - - ENE 11 17 6 9 1025.7 - 0.0
19/08:00pm 19.4 - - - - ENE 11 17 6 9 1025.5 - 0.0
19/07:30pm 19.4 - - - - ENE 11 17 6 9 1025.3 - 0.0
19/07:00pm 19.5 - - - - E 11 19 6 10 1025.1 - 0.0
19/06:30pm 19.8 - - - - E 13 19 7 10 1024.9 - 0.0
19/06:00pm 20.3 - - - - E 13 19 7 10 1024.5 1024.4 0.0
19/05:30pm 20.8 - - - - E 13 19 7 10 1024.4 - 0.0
19/05:00pm 21.2 - - - - E 13 19 7 10 1024.4 - 0.0
19/04:30pm 21.8 - - - - E 13 19 7 10 1024.4 - 0.0
19/04:00pm 22.4 - - - - E 13 17 7 9 1024.5 - 0.0
19/03:30pm 22.5 - - - - E 11 15 6 8 1024.7 - 0.0
19/03:00pm 22.7 - - - - E 11 15 6 8 1025.1 1025.0 0.0
19/02:30pm 23.0 - - - - E 11 17 6 9 1025.6 - 0.0
19/02:00pm 23.1 - - - - E 11 17 6 9 1026.0 - 0.0
19/01:30pm 21.9 - - - - ESE 15 20 8 11 1026.4 - 0.0
19/01:00pm 22.7 - - - - E 13 17 7 9 1026.9 - 0.0
19/12:30pm 22.8 - - - - E 11 15 6 8 1027.3 - 0.0
19/12:00pm 22.1 - - - - ESE 15 19 8 10 1027.8 1027.7 0.0
19/11:30am 21.7 - - - - ESE 13 17 7 9 1028.1 - 0.0
19/11:00am 21.2 - - - - ESE 11 15 6 8 1028.2 - 0.0
19/10:30am 21.0 - - - - ESE 9 13 5 7 1028.5 - 0.0
19/10:00am 21.5 - - - - ESE 11 13 6 7 1028.6 - 0.0
19/09:30am 20.7 - - - - SE 7 13 4 7 1028.6 - 0.0
19/09:00am 19.4 - - - - S 9 11 5 6 1028.5 1028.4 0.0
19/08:30am 19.1 - - - - SSW 9 13 5 7 1028.3 - 0.0
19/08:00am 18.3 - - - - S 9 13 5 7 1028.1 - 0.0
19/07:30am 17.0 - - - - SSW 9 13 5 7 1027.7 - 0.0
19/07:00am 15.7 - - - - SW 7 11 4 6 1027.4 - 0.0
19/06:30am 15.6 - - - - SW 9 11 5 6 1027.2 - 0.0
19/06:00am 15.8 - - - - SW 7 11 4 6 1027.0 1026.9 0.0
19/05:30am 15.8 - - - - SW 7 11 4 6 1026.8 - 0.0
19/05:00am 16.2 - - - - SW 7 9 4 5 1026.6 - 0.0
19/04:30am 16.5 - - - - SSW 7 11 4 6 1026.4 - 0.0
19/04:00am 16.9 - - - - SSW 7 13 4 7 1026.5 - 0.0
19/03:30am 17.7 - - - - SE 9 13 5 7 1026.4 - 0.0
19/03:00am 17.8 - - - - ESE 11 15 6 8 1026.6 1026.5 0.0
19/02:30am 16.9 - - - - SSW 9 13 5 7 1026.8 - 0.0
19/02:00am 17.4 - - - - S 11 15 6 8 1027.3 - 0.0
19/01:30am 18.5 - - - - SE 17 20 9 11 1027.3 - 0.0
19/01:00am 18.6 - - - - ESE 13 19 7 10 1027.6 - 0.0
19/12:30am 19.1 - - - - E 15 22 8 12 1027.9 - 0.0
19/12:00am 19.1 - - - - ESE 11 17 6 9 1028.0 1027.9 0.0
 
Date/Time
EDT
Temp
°C
App
Temp
°C
Dew
Point
Rel
Hum
%
Delta-T
°C
Wind Press
QNH
hPa
Press
MSL
hPa
Rain
since 9 am
mm
Dir
 
Spd
km/h
Gust
km/h
Spd
kts
Gust
kts
18/11:30pm 19.2 - - - - E 13 20 7 11 1028.0 - 0.0
18/11:00pm 19.3 - - - - ESE 15 20 8 11 1028.2 - 0.0
18/10:30pm 19.3 - - - - ESE 19 24 10 13 1028.2 - 0.0
18/10:00pm 19.4 - - - - ESE 19 28 10 15 1028.0 - 0.0
18/09:30pm 19.1 - - - - ESE 19 28 10 15 1027.9 - 0.0
18/09:00pm 19.1 - - - - ESE 20 28 11 15 1027.7 1027.6 0.0
18/08:30pm 18.5 - - - - ESE 11 13 6 7 1027.6 - 0.0
18/08:00pm 18.2 - - - - SE 13 17 7 9 1027.2 - 0.0
18/07:30pm 18.4 - - - - ESE 13 22 7 12 1027.0 - 0.0
18/07:00pm 18.7 - - - - SE 20 30 11 16 1026.7 - 0.0
18/06:30pm 18.8 - - - - SE 22 28 12 15 1026.4 - 0.0
18/06:00pm 19.3 - - - - SSE 20 30 11 16 1026.0 1025.9 0.0
18/05:30pm 19.3 - - - - SSE 24 32 13 17 1025.7 - 0.0
18/05:00pm 19.7 - - - - SSE 26 35 14 19 1025.5 - 0.0
18/04:30pm 19.8 - - - - SSE 24 33 13 18 1025.5 - 0.0
18/04:00pm 20.0 - - - - SSE 28 39 15 21 1025.6 - 0.0
18/03:30pm 20.6 - - - - SSE 24 35 13 19 1025.8 - 0.0
18/03:00pm 20.2 - - - - SSE 26 39 14 21 1026.0 1025.9 0.0
18/02:30pm 20.5 - - - - SSE 28 43 15 23 1026.3 - 0.0
18/02:00pm 20.0 - - - - SSE 30 43 16 23 1026.6 - 0.0
18/01:30pm 19.9 - - - - SSE 32 43 17 23 1026.9 - 0.0
18/01:00pm 20.0 - - - - SSE 33 43 18 23 1027.2 - 0.0
18/12:30pm 20.4 - - - - SSE 28 43 15 23 1027.4 - 0.0
18/12:00pm 20.2 - - - - SSE 26 43 14 23 1027.6 1027.5 0.0
18/11:30am 19.8 - - - - SSE 24 33 13 18 1027.7 - 0.0
18/11:00am 19.8 - - - - SSE 22 35 12 19 1027.8 - 0.0
18/10:30am 20.1 - - - - SSE 24 35 13 19 1027.8 - 0.0
18/10:00am 18.5 - - - - SSE 24 35 13 19 1027.9 - 0.0
18/09:30am 18.5 - - - - SSE 20 35 11 19 1027.6 - 0.0
18/09:00am 18.5 - - - - S 19 33 10 18 1027.4 1027.3 3.0
18/08:30am 17.6 - - - - S 20 39 11 21 1027.2 - 3.0
18/08:00am 17.2 - - - - S 20 30 11 16 1026.9 - 3.0
18/07:30am 16.3 - - - - SSW 17 26 9 14 1026.7 - 3.0
18/07:00am 15.9 - - - - SSW 15 26 8 14 1026.3 - 3.0
18/06:30am 15.3 - - - - S 17 26 9 14 1025.9 - 3.0
18/06:00am 15.1 - - - - SSW 15 26 8 14 1025.6 1025.5 3.0
18/05:30am 15.1 - - - - SSW 13 20 7 11 1025.2 - 3.0
18/05:00am 15.3 - - - - SSW 13 20 7 11 1024.9 - 3.0
18/04:30am 15.3 - - - - S 19 28 10 15 1024.8 - 3.0
18/04:00am 15.1 - - - - S 15 24 8 13 1024.5 - 3.0
18/03:30am 15.2 - - - - SSW 15 22 8 12 1024.4 - 3.0
18/03:00am 15.2 - - - - S 17 28 9 15 1024.4 1024.3 3.0
18/02:30am 15.3 - - - - S 20 26 11 14 1024.5 - 3.0
18/02:00am 15.5 - - - - S 20 30 11 16 1024.6 - 3.0
18/01:30am 15.8 - - - - S 19 30 10 16 1024.6 - 3.0
18/01:00am 15.9 - - - - S 22 33 12 18 1024.8 - 3.0
18/12:30am 15.9 - - - - S 17 28 9 15 1024.8 - 3.0
18/12:00am 16.2 - - - - S 13 20 7 11 1024.8 1024.7 2.8
 
Date/Time
EDT
Temp
°C
App
Temp
°C
Dew
Point
Rel
Hum
%
Delta-T
°C
Wind Press
QNH
hPa
Press
MSL
hPa
Rain
since 9 am
mm
Dir
 
Spd
km/h
Gust
km/h
Spd
kts
Gust
kts
17/11:30pm 19.2 - - - - SSE 22 35 12 19 1024.5 - 0.0
17/11:00pm 18.3 - - - - SE 13 17 7 9 1024.5 - 0.0
17/10:30pm 18.1 - - - - SE 22 30 12 16 1024.4 - 0.0
17/10:00pm 17.7 - - - - SSW 9 15 5 8 1024.3 - 0.0
17/09:30pm 17.7 - - - - S 13 20 7 11 1024.2 - 0.0
17/09:00pm 17.3 - - - - S 19 28 10 15 1024.1 1024.0 0.0

Other Formats:

Comma delimited format used in spreadsheet applications
http://www.bom.gov.au/fwo/IDN60801/IDN60801.94589.axf

JavaScript Object Notation format (JSON) in row-major order
http://www.bom.gov.au/fwo/IDN60801/IDN60801.94589.json